createdAt,value
2023-03-21T00:03:23.792Z,8.95
2023-03-21T00:17:51.033Z,9.13
2023-03-21T00:24:53.118Z,8.80
2023-03-21T00:31:55.064Z,9.48
2023-03-21T00:38:57.252Z,11.25
2023-03-21T00:45:59.773Z,10.32
2023-03-21T00:53:01.788Z,10.13
2023-03-21T01:00:06.754Z,11.38
2023-03-21T01:07:09.014Z,11.93
2023-03-21T01:14:21.857Z,11.57
2023-03-21T01:21:25.214Z,11.43
2023-03-21T01:28:28.810Z,12.48
2023-03-21T01:35:37.513Z,12.82
2023-03-21T01:42:43.038Z,11.75
2023-03-21T01:49:48.074Z,11.30
2023-03-21T01:56:50.434Z,11.98
2023-03-21T02:03:52.686Z,13.52
2023-03-21T02:10:54.826Z,12.75
2023-03-21T02:18:23.078Z,12.48
2023-03-21T02:25:31.453Z,11.93
2023-03-21T02:33:11.738Z,10.65
2023-03-21T02:47:39.862Z,10.18
2023-03-21T02:54:48.303Z,9.00
2023-03-21T03:01:52.896Z,9.37
2023-03-21T03:09:02.200Z,9.07
2023-03-21T03:16:13.869Z,7.55
2023-03-21T03:23:39.096Z,6.80
2023-03-21T03:30:48.683Z,6.63
2023-03-21T03:37:59.127Z,6.53
2023-03-21T03:45:01.682Z,6.10
2023-03-21T03:52:26.686Z,5.82
2023-03-21T03:59:28.695Z,5.63
2023-03-21T04:06:30.841Z,5.13
2023-03-21T04:13:34.059Z,5.20
2023-03-21T04:20:37.422Z,5.25
2023-03-21T04:27:39.567Z,4.68
2023-03-21T04:34:41.628Z,4.47
2023-03-21T04:41:45.969Z,5.40
2023-03-21T04:48:47.919Z,5.15
2023-03-21T04:55:53.489Z,5.10
2023-03-21T05:02:58.808Z,5.03
2023-03-21T05:10:02.444Z,5.18
2023-03-21T05:17:05.656Z,4.45
2023-03-21T05:24:12.278Z,4.75
2023-03-21T05:31:18.319Z,5.55
2023-03-21T05:38:20.911Z,5.15
2023-03-21T05:45:23.068Z,4.30
2023-03-21T05:52:25.142Z,4.38
2023-03-21T05:59:27.232Z,4.35
2023-03-21T06:06:29.218Z,5.38
2023-03-21T06:13:33.146Z,5.28
2023-03-21T06:20:35.470Z,5.18
2023-03-21T06:27:37.777Z,5.93
2023-03-21T06:34:39.736Z,5.35
2023-03-21T06:41:41.893Z,5.63
2023-03-21T06:48:45.114Z,4.78
2023-03-21T06:55:54.887Z,4.25
2023-03-21T07:02:56.960Z,3.67
2023-03-21T07:09:59.009Z,8.30
2023-03-21T07:17:01.071Z,5.80
2023-03-21T07:24:03.165Z,5.35
2023-03-21T07:31:08.200Z,5.25
2023-03-21T07:38:10.285Z,5.35
2023-03-21T07:45:16.642Z,5.13
2023-03-21T07:52:21.201Z,5.47
2023-03-21T07:59:23.764Z,4.93
2023-03-21T08:06:28.801Z,5.55
2023-03-21T08:13:30.911Z,4.97
2023-03-21T08:20:32.838Z,5.78
2023-03-21T08:27:35.630Z,5.80
2023-03-21T08:34:37.630Z,5.68
2023-03-21T08:41:39.621Z,5.95
2023-03-21T08:48:41.548Z,6.15
2023-03-21T08:55:44.854Z,4.72
2023-03-21T09:02:52.295Z,5.60
2023-03-21T09:10:08.424Z,6.30
2023-03-21T09:17:16.769Z,5.70
2023-03-21T09:24:19.269Z,5.70
2023-03-21T09:31:25.261Z,5.95
2023-03-21T09:38:30.747Z,6.10
2023-03-21T09:45:44.966Z,5.47
2023-03-21T09:52:48.237Z,5.47
2023-03-21T09:59:53.817Z,5.60
2023-03-21T10:06:58.718Z,4.95
2023-03-21T10:14:18.985Z,4.78
2023-03-21T10:28:53.035Z,4.47
2023-03-21T10:36:09.716Z,4.68
2023-03-21T10:43:35.580Z,4.47
2023-03-21T10:50:37.782Z,4.97
2023-03-21T10:57:39.802Z,5.50
2023-03-21T11:04:44.032Z,5.78
2023-03-21T11:11:54.117Z,5.57
2023-03-21T11:19:01.534Z,5.10
2023-03-21T11:26:10.061Z,6.32
2023-03-21T11:33:12.688Z,5.20
2023-03-21T11:40:31.186Z,6.70
2023-03-21T11:47:34.532Z,6.68
2023-03-21T11:54:55.489Z,5.95
2023-03-21T12:02:16.757Z,6.13
2023-03-21T12:09:33.865Z,5.43
2023-03-21T12:16:48.439Z,4.95
2023-03-21T12:24:04.403Z,5.60
2023-03-21T12:31:14.130Z,4.25
2023-03-21T12:38:26.796Z,4.97
2023-03-21T12:45:45.626Z,4.80
2023-03-21T13:00:39.982Z,4.85
2023-03-21T13:07:44.620Z,5.07
2023-03-21T13:15:12.422Z,4.85
2023-03-21T13:22:27.450Z,6.38
2023-03-21T13:29:42.825Z,5.15
2023-03-21T13:36:46.455Z,3.97
2023-03-21T13:44:03.788Z,4.90
2023-03-21T13:51:06.776Z,4.68
2023-03-21T13:58:37.700Z,4.38
2023-03-21T14:05:40.130Z,4.93
2023-03-21T14:12:42.941Z,4.82
2023-03-21T14:19:44.947Z,5.22
2023-03-21T14:26:51.490Z,5.00
2023-03-21T14:33:57.381Z,5.80
2023-03-21T14:40:59.451Z,5.60
2023-03-21T14:48:14.834Z,5.07
2023-03-21T14:55:17.243Z,4.78
2023-03-21T15:02:39.541Z,5.00
2023-03-21T15:09:54.583Z,4.80
2023-03-21T15:16:57.012Z,5.47
2023-03-21T15:24:03.640Z,5.82
2023-03-21T15:31:08.215Z,5.68
2023-03-21T15:38:22.942Z,4.65
2023-03-21T15:45:27.661Z,4.35
2023-03-21T15:52:29.647Z,4.60
2023-03-21T15:59:39.335Z,4.65
2023-03-21T16:07:17.614Z,4.38
2023-03-21T16:14:20.963Z,4.78
2023-03-21T16:21:26.817Z,5.03
2023-03-21T16:28:28.854Z,4.28
2023-03-21T16:35:30.912Z,4.13
2023-03-21T16:42:32.908Z,4.63
2023-03-21T16:49:35.082Z,4.88
2023-03-21T16:56:40.122Z,4.13
2023-03-21T17:03:43.538Z,4.32
2023-03-21T17:10:47.478Z,5.38
2023-03-21T17:17:55.898Z,5.45
2023-03-21T17:24:59.023Z,6.07
2023-03-21T17:32:01.515Z,6.47
2023-03-21T17:39:07.800Z,5.88
2023-03-21T17:46:18.801Z,7.10
2023-03-21T17:53:23.065Z,6.00
2023-03-21T18:00:29.108Z,6.05
2023-03-21T18:08:06.012Z,6.82
2023-03-21T18:14:54.714Z,5.53
2023-03-21T18:21:57.610Z,6.00
2023-03-21T18:29:57.266Z,6.65
2023-03-21T18:36:27.888Z,7.75
2023-03-21T18:50:54.700Z,10.05
2023-03-21T18:57:57.181Z,8.45
2023-03-21T19:04:59.954Z,10.50
2023-03-21T19:12:03.956Z,12.70
2023-03-21T19:19:07.239Z,10.48
2023-03-21T19:26:10.849Z,12.10
2023-03-21T19:33:14.982Z,14.73
2023-03-21T19:40:21.211Z,15.00
2023-03-21T19:47:24.963Z,14.60
2023-03-21T19:54:28.471Z,13.15
2023-03-21T20:01:33.297Z,14.45
2023-03-21T20:09:05.347Z,13.98
2023-03-21T20:16:03.655Z,13.88
2023-03-21T20:23:08.494Z,14.27
2023-03-21T20:30:19.237Z,14.45
2023-03-21T20:37:25.586Z,14.40
2023-03-21T20:44:52.337Z,14.10
2023-03-21T20:59:26.480Z,11.18
2023-03-21T21:06:31.044Z,12.43
2023-03-21T21:13:35.525Z,16.10
2023-03-21T21:20:38.080Z,13.70
2023-03-21T21:27:40.475Z,16.15
2023-03-21T21:34:43.001Z,14.80
2023-03-21T21:41:44.961Z,17.65
2023-03-21T21:48:48.063Z,15.90
2023-03-21T21:55:51.307Z,15.75
2023-03-21T22:02:53.760Z,15.43
2023-03-21T22:09:56.432Z,13.40
2023-03-21T22:17:00.116Z,14.02
2023-03-21T22:24:02.111Z,14.80
2023-03-21T22:31:12.479Z,14.90
2023-03-21T22:38:14.532Z,13.65
2023-03-21T22:45:17.156Z,13.70
2023-03-21T22:52:19.184Z,13.10
2023-03-21T22:59:21.491Z,11.45
2023-03-21T23:06:23.621Z,11.48
2023-03-21T23:13:26.778Z,12.27
2023-03-21T23:20:28.774Z,11.50
2023-03-21T23:27:30.889Z,11.23
2023-03-21T23:34:32.789Z,11.60
2023-03-21T23:41:34.888Z,11.38
2023-03-21T23:48:36.810Z,10.95
2023-03-21T23:55:40.519Z,11.32
